sensor_id;sensor_type;location;lat;lon;timestamp;P1;durP1;ratioP1;P2;durP2;ratioP2
18334;SDS011;9293;49.524;10.964;2024-03-23T00:54:32;12.20;;;8.88;;
18334;SDS011;9293;49.524;10.964;2024-03-23T00:56:58;12.93;;;9.90;;
18334;SDS011;9293;49.524;10.964;2024-03-23T00:59:24;10.57;;;9.45;;
18334;SDS011;9293;49.524;10.964;2024-03-23T01:01:54;11.70;;;9.50;;
18334;SDS011;9293;49.524;10.964;2024-03-23T01:04:21;11.38;;;9.60;;
18334;SDS011;9293;49.524;10.964;2024-03-23T01:06:47;13.45;;;10.13;;
18334;SDS011;9293;49.524;10.964;2024-03-23T01:09:13;14.23;;;10.15;;
18334;SDS011;9293;49.524;10.964;2024-03-23T01:11:39;14.30;;;10.38;;
18334;SDS011;9293;49.524;10.964;2024-03-23T01:14:05;13.20;;;10.80;;
18334;SDS011;9293;49.524;10.964;2024-03-23T01:16:32;13.88;;;10.52;;
18334;SDS011;9293;49.524;10.964;2024-03-23T01:18:58;14.43;;;10.60;;
18334;SDS011;9293;49.524;10.964;2024-03-23T01:21:24;12.00;;;9.90;;
18334;SDS011;9293;49.524;10.964;2024-03-23T01:23:50;13.75;;;9.80;;
18334;SDS011;9293;49.524;10.964;2024-03-23T01:26:16;12.05;;;10.40;;
18334;SDS011;9293;49.524;10.964;2024-03-23T01:28:42;11.95;;;9.88;;
18334;SDS011;9293;49.524;10.964;2024-03-23T01:31:08;17.40;;;10.13;;
18334;SDS011;9293;49.524;10.964;2024-03-23T01:33:35;12.15;;;9.98;;
18334;SDS011;9293;49.524;10.964;2024-03-23T01:36:01;11.68;;;9.07;;
18334;SDS011;9293;49.524;10.964;2024-03-23T01:38:28;13.68;;;9.77;;
18334;SDS011;9293;49.524;10.964;2024-03-23T01:40:57;12.88;;;9.60;;
18334;SDS011;9293;49.524;10.964;2024-03-23T01:43:23;11.48;;;9.75;;
18334;SDS011;9293;49.524;10.964;2024-03-23T01:45:50;13.40;;;10.30;;
18334;SDS011;9293;49.524;10.964;2024-03-23T01:48:19;15.75;;;10.00;;
18334;SDS011;9293;49.524;10.964;2024-03-23T01:50:46;12.73;;;10.43;;
18334;SDS011;9293;49.524;10.964;2024-03-23T01:53:14;11.45;;;10.07;;
18334;SDS011;9293;49.524;10.964;2024-03-23T01:55:43;13.88;;;10.30;;
18334;SDS011;9293;49.524;10.964;2024-03-23T01:58:09;12.30;;;10.45;;
18334;SDS011;9293;49.524;10.964;2024-03-23T02:00:35;13.38;;;9.63;;
18334;SDS011;9293;49.524;10.964;2024-03-23T02:03:02;12.85;;;10.48;;
18334;SDS011;9293;49.524;10.964;2024-03-23T02:05:47;10.70;;;9.20;;
18334;SDS011;9293;49.524;10.964;2024-03-23T02:08:13;13.90;;;9.75;;
18334;SDS011;9293;49.524;10.964;2024-03-23T02:10:40;13.95;;;9.38;;
18334;SDS011;9293;49.524;10.964;2024-03-23T02:13:06;14.30;;;10.10;;
18334;SDS011;9293;49.524;10.964;2024-03-23T02:15:32;12.05;;;9.10;;
18334;SDS011;9293;49.524;10.964;2024-03-23T02:17:59;11.88;;;9.73;;
18334;SDS011;9293;49.524;10.964;2024-03-23T02:20:25;13.60;;;9.63;;
18334;SDS011;9293;49.524;10.964;2024-03-23T02:22:53;11.55;;;9.07;;
18334;SDS011;9293;49.524;10.964;2024-03-23T02:25:19;11.80;;;9.52;;
18334;SDS011;9293;49.524;10.964;2024-03-23T02:27:45;12.15;;;8.93;;
18334;SDS011;9293;49.524;10.964;2024-03-23T02:30:11;11.15;;;9.07;;
18334;SDS011;9293;49.524;10.964;2024-03-23T02:32:37;10.13;;;8.90;;
18334;SDS011;9293;49.524;10.964;2024-03-23T02:35:03;12.10;;;9.40;;
18334;SDS011;9293;49.524;10.964;2024-03-23T02:37:30;14.55;;;9.40;;
18334;SDS011;9293;49.524;10.964;2024-03-23T02:39:56;11.40;;;9.32;;
18334;SDS011;9293;49.524;10.964;2024-03-23T02:50:18;14.57;;;9.30;;
18334;SDS011;9293;49.524;10.964;2024-03-23T02:52:45;12.88;;;8.82;;
18334;SDS011;9293;49.524;10.964;2024-03-23T02:55:11;9.90;;;8.77;;
18334;SDS011;9293;49.524;10.964;2024-03-23T02:57:37;13.82;;;8.95;;
18334;SDS011;9293;49.524;10.964;2024-03-23T03:00:04;11.32;;;9.68;;
18334;SDS011;9293;49.524;10.964;2024-03-23T03:02:32;15.98;;;9.20;;
18334;SDS011;9293;49.524;10.964;2024-03-23T03:04:59;10.30;;;9.00;;
18334;SDS011;9293;49.524;10.964;2024-03-23T03:07:25;11.10;;;8.68;;
18334;SDS011;9293;49.524;10.964;2024-03-23T03:09:51;11.27;;;8.55;;
18334;SDS011;9293;49.524;10.964;2024-03-23T03:12:17;11.52;;;8.65;;
18334;SDS011;9293;49.524;10.964;2024-03-23T03:14:43;11.35;;;8.85;;
18334;SDS011;9293;49.524;10.964;2024-03-23T03:17:09;10.40;;;9.13;;
18334;SDS011;9293;49.524;10.964;2024-03-23T03:19:35;12.25;;;9.45;;
18334;SDS011;9293;49.524;10.964;2024-03-23T03:22:01;10.88;;;9.25;;
18334;SDS011;9293;49.524;10.964;2024-03-23T03:24:29;12.90;;;9.00;;
18334;SDS011;9293;49.524;10.964;2024-03-23T03:26:55;9.82;;;8.82;;
18334;SDS011;9293;49.524;10.964;2024-03-23T03:29:23;14.27;;;9.07;;
18334;SDS011;9293;49.524;10.964;2024-03-23T03:31:50;9.70;;;8.35;;
18334;SDS011;9293;49.524;10.964;2024-03-23T03:34:16;11.63;;;9.07;;
18334;SDS011;9293;49.524;10.964;2024-03-23T03:36:42;12.43;;;8.75;;
18334;SDS011;9293;49.524;10.964;2024-03-23T03:39:08;12.35;;;9.18;;
18334;SDS011;9293;49.524;10.964;2024-03-23T03:41:35;10.73;;;8.70;;
18334;SDS011;9293;49.524;10.964;2024-03-23T03:44:01;10.02;;;8.52;;
18334;SDS011;9293;49.524;10.964;2024-03-23T03:46:28;9.88;;;8.70;;
18334;SDS011;9293;49.524;10.964;2024-03-23T03:48:54;11.07;;;8.80;;
18334;SDS011;9293;49.524;10.964;2024-03-23T03:51:20;12.50;;;9.20;;
18334;SDS011;9293;49.524;10.964;2024-03-23T03:53:46;11.05;;;8.77;;
18334;SDS011;9293;49.524;10.964;2024-03-23T03:56:12;10.07;;;8.15;;
18334;SDS011;9293;49.524;10.964;2024-03-23T03:58:39;10.38;;;8.23;;
18334;SDS011;9293;49.524;10.964;2024-03-23T04:01:05;10.65;;;8.32;;
18334;SDS011;9293;49.524;10.964;2024-03-23T04:03:31;12.98;;;8.90;;
18334;SDS011;9293;49.524;10.964;2024-03-23T04:05:58;16.00;;;9.52;;
18334;SDS011;9293;49.524;10.964;2024-03-23T04:08:24;9.80;;;8.50;;
18334;SDS011;9293;49.524;10.964;2024-03-23T04:10:50;10.05;;;8.68;;
18334;SDS011;9293;49.524;10.964;2024-03-23T04:13:16;12.52;;;8.90;;
18334;SDS011;9293;49.524;10.964;2024-03-23T04:15:42;11.15;;;8.55;;
18334;SDS011;9293;49.524;10.964;2024-03-23T04:18:08;11.10;;;9.02;;
18334;SDS011;9293;49.524;10.964;2024-03-23T04:20:34;11.52;;;9.20;;
18334;SDS011;9293;49.524;10.964;2024-03-23T04:23:00;9.93;;;8.23;;
18334;SDS011;9293;49.524;10.964;2024-03-23T04:25:27;10.65;;;8.07;;
18334;SDS011;9293;49.524;10.964;2024-03-23T04:27:53;9.85;;;8.82;;
18334;SDS011;9293;49.524;10.964;2024-03-23T04:30:19;11.10;;;8.85;;
18334;SDS011;9293;49.524;10.964;2024-03-23T04:32:46;8.90;;;8.00;;
18334;SDS011;9293;49.524;10.964;2024-03-23T04:35:13;12.55;;;8.60;;
18334;SDS011;9293;49.524;10.964;2024-03-23T04:37:39;10.45;;;8.57;;
18334;SDS011;9293;49.524;10.964;2024-03-23T04:40:08;11.38;;;8.75;;
18334;SDS011;9293;49.524;10.964;2024-03-23T04:42:35;10.93;;;9.23;;
18334;SDS011;9293;49.524;10.964;2024-03-23T04:45:01;9.73;;;8.65;;
18334;SDS011;9293;49.524;10.964;2024-03-23T04:47:27;9.95;;;8.43;;
18334;SDS011;9293;49.524;10.964;2024-03-23T04:49:54;11.15;;;8.85;;
18334;SDS011;9293;49.524;10.964;2024-03-23T04:52:20;15.68;;;10.32;;
18334;SDS011;9293;49.524;10.964;2024-03-23T04:54:46;13.45;;;9.23;;
18334;SDS011;9293;49.524;10.964;2024-03-23T04:57:13;10.20;;;9.10;;
18334;SDS011;9293;49.524;10.964;2024-03-23T04:59:45;10.45;;;9.30;;
18334;SDS011;9293;49.524;10.964;2024-03-23T05:02:13;11.63;;;8.27;;
18334;SDS011;9293;49.524;10.964;2024-03-23T05:04:40;10.65;;;8.82;;
18334;SDS011;9293;49.524;10.964;2024-03-23T05:07:06;10.48;;;7.88;;
18334;SDS011;9293;49.524;10.964;2024-03-23T05:09:32;8.95;;;8.05;;
18334;SDS011;9293;49.524;10.964;2024-03-23T05:11:59;9.30;;;7.93;;
18334;SDS011;9293;49.524;10.964;2024-03-23T05:14:26;10.90;;;8.32;;
18334;SDS011;9293;49.524;10.964;2024-03-23T05:16:53;10.57;;;8.27;;
18334;SDS011;9293;49.524;10.964;2024-03-23T05:19:19;8.65;;;7.47;;
18334;SDS011;9293;49.524;10.964;2024-03-23T05:21:45;9.90;;;8.65;;
18334;SDS011;9293;49.524;10.964;2024-03-23T05:24:12;10.15;;;8.07;;
18334;SDS011;9293;49.524;10.964;2024-03-23T05:26:38;10.48;;;7.25;;
18334;SDS011;9293;49.524;10.964;2024-03-23T05:29:04;10.13;;;7.50;;
18334;SDS011;9293;49.524;10.964;2024-03-23T05:31:32;9.23;;;6.68;;
18334;SDS011;9293;49.524;10.964;2024-03-23T05:33:58;11.80;;;7.90;;
18334;SDS011;9293;49.524;10.964;2024-03-23T05:36:24;9.00;;;6.85;;
18334;SDS011;9293;49.524;10.964;2024-03-23T05:38:50;8.00;;;6.07;;
18334;SDS011;9293;49.524;10.964;2024-03-23T05:41:16;9.50;;;6.35;;
18334;SDS011;9293;49.524;10.964;2024-03-23T05:43:42;9.20;;;6.47;;
18334;SDS011;9293;49.524;10.964;2024-03-23T05:46:09;8.43;;;6.68;;
18334;SDS011;9293;49.524;10.964;2024-03-23T05:48:35;11.82;;;6.38;;
18334;SDS011;9293;49.524;10.964;2024-03-23T05:51:02;7.70;;;6.25;;
18334;SDS011;9293;49.524;10.964;2024-03-23T05:53:28;6.45;;;5.13;;
18334;SDS011;9293;49.524;10.964;2024-03-23T05:56:02;12.30;;;5.63;;
18334;SDS011;9293;49.524;10.964;2024-03-23T05:58:32;6.90;;;5.50;;
18334;SDS011;9293;49.524;10.964;2024-03-23T06:00:59;6.30;;;5.68;;
18334;SDS011;9293;49.524;10.964;2024-03-23T06:03:27;7.55;;;5.55;;
18334;SDS011;9293;49.524;10.964;2024-03-23T06:05:54;8.73;;;5.60;;
18334;SDS011;9293;49.524;10.964;2024-03-23T06:08:20;8.02;;;5.97;;
18334;SDS011;9293;49.524;10.964;2024-03-23T06:10:47;6.72;;;5.93;;
18334;SDS011;9293;49.524;10.964;2024-03-23T06:13:13;7.22;;;6.00;;
18334;SDS011;9293;49.524;10.964;2024-03-23T06:15:39;9.93;;;6.43;;
18334;SDS011;9293;49.524;10.964;2024-03-23T06:18:06;8.57;;;6.25;;
18334;SDS011;9293;49.524;10.964;2024-03-23T06:20:33;10.70;;;6.65;;
18334;SDS011;9293;49.524;10.964;2024-03-23T06:23:03;7.90;;;6.82;;
18334;SDS011;9293;49.524;10.964;2024-03-23T06:25:29;10.75;;;6.95;;
18334;SDS011;9293;49.524;10.964;2024-03-23T06:27:55;7.72;;;6.70;;
18334;SDS011;9293;49.524;10.964;2024-03-23T06:30:23;8.90;;;7.00;;
18334;SDS011;9293;49.524;10.964;2024-03-23T06:32:50;8.45;;;6.95;;
18334;SDS011;9293;49.524;10.964;2024-03-23T06:35:16;9.88;;;7.50;;
18334;SDS011;9293;49.524;10.964;2024-03-23T06:37:42;10.95;;;7.90;;
18334;SDS011;9293;49.524;10.964;2024-03-23T06:40:08;8.32;;;7.30;;
18334;SDS011;9293;49.524;10.964;2024-03-23T06:42:36;10.65;;;7.93;;
18334;SDS011;9293;49.524;10.964;2024-03-23T06:45:03;10.25;;;8.60;;
18334;SDS011;9293;49.524;10.964;2024-03-23T06:47:32;11.30;;;7.90;;
18334;SDS011;9293;49.524;10.964;2024-03-23T06:50:08;13.52;;;8.35;;
18334;SDS011;9293;49.524;10.964;2024-03-23T06:52:41;10.43;;;8.52;;
18334;SDS011;9293;49.524;10.964;2024-03-23T06:55:13;10.20;;;8.40;;
18334;SDS011;9293;49.524;10.964;2024-03-23T06:57:43;9.52;;;7.75;;
18334;SDS011;9293;49.524;10.964;2024-03-23T07:00:09;10.65;;;7.68;;
18334;SDS011;9293;49.524;10.964;2024-03-23T07:02:41;10.48;;;6.95;;
18334;SDS011;9293;49.524;10.964;2024-03-23T07:05:07;9.40;;;7.35;;
18334;SDS011;9293;49.524;10.964;2024-03-23T07:07:37;7.57;;;5.93;;
18334;SDS011;9293;49.524;10.964;2024-03-23T07:10:05;7.75;;;5.90;;
18334;SDS011;9293;49.524;10.964;2024-03-23T07:12:35;8.55;;;6.05;;
18334;SDS011;9293;49.524;10.964;2024-03-23T07:15:01;6.60;;;5.40;;
18334;SDS011;9293;49.524;10.964;2024-03-23T07:17:28;7.10;;;6.03;;
18334;SDS011;9293;49.524;10.964;2024-03-23T07:19:54;7.10;;;5.20;;
18334;SDS011;9293;49.524;10.964;2024-03-23T07:22:20;6.50;;;5.80;;
18334;SDS011;9293;49.524;10.964;2024-03-23T07:24:47;10.27;;;6.47;;
18334;SDS011;9293;49.524;10.964;2024-03-23T07:27:13;7.43;;;6.40;;
18334;SDS011;9293;49.524;10.964;2024-03-23T07:29:45;8.27;;;6.18;;
18334;SDS011;9293;49.524;10.964;2024-03-23T07:32:18;7.65;;;5.78;;
18334;SDS011;9293;49.524;10.964;2024-03-23T07:34:44;7.78;;;6.18;;
18334;SDS011;9293;49.524;10.964;2024-03-23T07:37:10;8.23;;;6.60;;
18334;SDS011;9293;49.524;10.964;2024-03-23T07:39:36;8.50;;;6.47;;
18334;SDS011;9293;49.524;10.964;2024-03-23T07:42:03;11.23;;;6.30;;
18334;SDS011;9293;49.524;10.964;2024-03-23T07:44:30;8.50;;;6.43;;
18334;SDS011;9293;49.524;10.964;2024-03-23T07:46:56;7.72;;;6.32;;
18334;SDS011;9293;49.524;10.964;2024-03-23T07:49:27;12.40;;;6.57;;
18334;SDS011;9293;49.524;10.964;2024-03-23T07:51:53;8.82;;;6.70;;
18334;SDS011;9293;49.524;10.964;2024-03-23T07:54:19;8.02;;;6.03;;
18334;SDS011;9293;49.524;10.964;2024-03-23T07:56:45;8.25;;;6.38;;
18334;SDS011;9293;49.524;10.964;2024-03-23T07:59:12;11.25;;;7.45;;
18334;SDS011;9293;49.524;10.964;2024-03-23T08:01:38;31.63;;;14.02;;
18334;SDS011;9293;49.524;10.964;2024-03-23T08:04:05;39.72;;;16.17;;
18334;SDS011;9293;49.524;10.964;2024-03-23T08:06:31;16.48;;;8.25;;
18334;SDS011;9293;49.524;10.964;2024-03-23T08:08:57;9.13;;;6.38;;
18334;SDS011;9293;49.524;10.964;2024-03-23T08:11:27;7.30;;;5.75;;
18334;SDS011;9293;49.524;10.964;2024-03-23T08:13:55;8.13;;;5.82;;
18334;SDS011;9293;49.524;10.964;2024-03-23T08:16:21;6.63;;;4.10;;
18334;SDS011;9293;49.524;10.964;2024-03-23T08:18:48;5.43;;;4.18;;
18334;SDS011;9293;49.524;10.964;2024-03-23T08:21:16;5.13;;;3.92;;
18334;SDS011;9293;49.524;10.964;2024-03-23T08:23:42;6.47;;;3.63;;
18334;SDS011;9293;49.524;10.964;2024-03-23T08:26:10;5.25;;;3.40;;
18334;SDS011;9293;49.524;10.964;2024-03-23T08:28:38;3.80;;;3.15;;
18334;SDS011;9293;49.524;10.964;2024-03-23T08:31:08;3.20;;;2.58;;
18334;SDS011;9293;49.524;10.964;2024-03-23T08:33:35;3.30;;;2.22;;
18334;SDS011;9293;49.524;10.964;2024-03-23T08:38:36;2.60;;;2.22;;
18334;SDS011;9293;49.524;10.964;2024-03-23T08:41:03;3.42;;;2.28;;
18334;SDS011;9293;49.524;10.964;2024-03-23T08:46:05;2.72;;;0.95;;
18334;SDS011;9293;49.524;10.964;2024-03-23T08:48:39;1.60;;;1.23;;
18334;SDS011;9293;49.524;10.964;2024-03-23T08:51:08;1.00;;;0.70;;
18334;SDS011;9293;49.524;10.964;2024-03-23T08:53:36;1.52;;;0.80;;
18334;SDS011;9293;49.524;10.964;2024-03-23T08:56:03;1.45;;;0.80;;
18334;SDS011;9293;49.524;10.964;2024-03-23T08:58:30;3.00;;;1.40;;
18334;SDS011;9293;49.524;10.964;2024-03-23T09:01:02;1.17;;;0.98;;
18334;SDS011;9293;49.524;10.964;2024-03-23T09:03:30;1.05;;;0.80;;
18334;SDS011;9293;49.524;10.964;2024-03-23T09:05:56;0.95;;;0.70;;
18334;SDS011;9293;49.524;10.964;2024-03-23T09:08:24;1.35;;;0.57;;
18334;SDS011;9293;49.524;10.964;2024-03-23T09:10:52;1.25;;;0.50;;
18334;SDS011;9293;49.524;10.964;2024-03-23T09:13:18;1.25;;;0.50;;
18334;SDS011;9293;49.524;10.964;2024-03-23T09:15:46;0.63;;;0.35;;
18334;SDS011;9293;49.524;10.964;2024-03-23T09:18:13;0.75;;;0.50;;
18334;SDS011;9293;49.524;10.964;2024-03-23T09:20:39;0.70;;;0.50;;
18334;SDS011;9293;49.524;10.964;2024-03-23T09:23:05;0.73;;;0.50;;
18334;SDS011;9293;49.524;10.964;2024-03-23T09:25:31;0.80;;;0.22;;
18334;SDS011;9293;49.524;10.964;2024-03-23T09:28:01;2.20;;;0.40;;
18334;SDS011;9293;49.524;10.964;2024-03-23T09:30:27;0.40;;;0.30;;
18334;SDS011;9293;49.524;10.964;2024-03-23T09:32:53;0.20;;;0.20;;
18334;SDS011;9293;49.524;10.964;2024-03-23T09:35:19;0.22;;;0.20;;
18334;SDS011;9293;49.524;10.964;2024-03-23T09:37:45;0.52;;;0.20;;
18334;SDS011;9293;49.524;10.964;2024-03-23T09:40:11;0.82;;;0.25;;
18334;SDS011;9293;49.524;10.964;2024-03-23T09:42:38;0.20;;;0.20;;
18334;SDS011;9293;49.524;10.964;2024-03-23T09:45:08;0.10;;;0.10;;
18334;SDS011;9293;49.524;10.964;2024-03-23T09:47:42;0.28;;;0.10;;
18334;SDS011;9293;49.524;10.964;2024-03-23T09:50:09;0.25;;;0.10;;
18334;SDS011;9293;49.524;10.964;2024-03-23T09:52:35;0.20;;;0.20;;
18334;SDS011;9293;49.524;10.964;2024-03-23T09:55:02;0.20;;;0.10;;
18334;SDS011;9293;49.524;10.964;2024-03-23T09:57:29;0.65;;;0.15;;
18334;SDS011;9293;49.524;10.964;2024-03-23T09:59:55;0.35;;;0.10;;
18334;SDS011;9293;49.524;10.964;2024-03-23T10:02:23;0.40;;;0.10;;
18334;SDS011;9293;49.524;10.964;2024-03-23T10:04:51;1.08;;;0.20;;
18334;SDS011;9293;49.524;10.964;2024-03-23T10:07:20;1.13;;;0.32;;
18334;SDS011;9293;49.524;10.964;2024-03-23T10:09:50;0.50;;;0.30;;
18334;SDS011;9293;49.524;10.964;2024-03-23T10:12:19;0.10;;;0.10;;
18334;SDS011;9293;49.524;10.964;2024-03-23T10:14:45;0.82;;;0.20;;
18334;SDS011;9293;49.524;10.964;2024-03-23T10:19:40;1.77;;;0.38;;
18334;SDS011;9293;49.524;10.964;2024-03-23T10:22:20;0.65;;;0.30;;
18334;SDS011;9293;49.524;10.964;2024-03-23T10:24:48;0.80;;;0.50;;
18334;SDS011;9293;49.524;10.964;2024-03-23T10:27:18;2.05;;;0.52;;
18334;SDS011;9293;49.524;10.964;2024-03-23T10:29:48;1.03;;;0.60;;
18334;SDS011;9293;49.524;10.964;2024-03-23T10:32:18;2.63;;;0.88;;
18334;SDS011;9293;49.524;10.964;2024-03-23T10:34:44;2.10;;;0.82;;
18334;SDS011;9293;49.524;10.964;2024-03-23T10:37:11;2.13;;;0.70;;
18334;SDS011;9293;49.524;10.964;2024-03-23T10:39:38;2.15;;;0.90;;
18334;SDS011;9293;49.524;10.964;2024-03-23T10:42:05;2.33;;;0.80;;
18334;SDS011;9293;49.524;10.964;2024-03-23T10:44:40;2.72;;;1.02;;
18334;SDS011;9293;49.524;10.964;2024-03-23T10:47:06;3.13;;;1.10;;
18334;SDS011;9293;49.524;10.964;2024-03-23T10:49:33;2.83;;;0.98;;
18334;SDS011;9293;49.524;10.964;2024-03-23T10:52:00;2.30;;;1.00;;
18334;SDS011;9293;49.524;10.964;2024-03-23T10:54:34;2.67;;;1.10;;
18334;SDS011;9293;49.524;10.964;2024-03-23T10:57:02;2.20;;;1.00;;
18334;SDS011;9293;49.524;10.964;2024-03-23T10:59:36;2.75;;;1.05;;
18334;SDS011;9293;49.524;10.964;2024-03-23T11:02:03;3.22;;;1.20;;
18334;SDS011;9293;49.524;10.964;2024-03-23T11:04:30;3.08;;;1.20;;
18334;SDS011;9293;49.524;10.964;2024-03-23T11:06:57;2.42;;;1.40;;
18334;SDS011;9293;49.524;10.964;2024-03-23T11:09:39;5.22;;;1.50;;
18334;SDS011;9293;49.524;10.964;2024-03-23T11:14:57;3.95;;;1.33;;
18334;SDS011;9293;49.524;10.964;2024-03-23T11:17:30;3.67;;;1.48;;
18334;SDS011;9293;49.524;10.964;2024-03-23T11:19:58;2.65;;;1.30;;
18334;SDS011;9293;49.524;10.964;2024-03-23T11:22:38;4.05;;;1.50;;
18334;SDS011;9293;49.524;10.964;2024-03-23T11:27:43;3.92;;;1.40;;
18334;SDS011;9293;49.524;10.964;2024-03-23T11:32:40;4.15;;;1.55;;
18334;SDS011;9293;49.524;10.964;2024-03-23T11:35:07;6.00;;;1.80;;
18334;SDS011;9293;49.524;10.964;2024-03-23T11:37:36;5.13;;;2.15;;
18334;SDS011;9293;49.524;10.964;2024-03-23T11:40:23;5.13;;;1.70;;
18334;SDS011;9293;49.524;10.964;2024-03-23T11:42:54;5.20;;;1.70;;
18334;SDS011;9293;49.524;10.964;2024-03-23T11:45:21;5.05;;;1.80;;
18334;SDS011;9293;49.524;10.964;2024-03-23T11:47:47;4.60;;;1.90;;
18334;SDS011;9293;49.524;10.964;2024-03-23T11:50:20;4.97;;;1.88;;
18334;SDS011;9293;49.524;10.964;2024-03-23T11:52:46;3.45;;;1.27;;
18334;SDS011;9293;49.524;10.964;2024-03-23T11:55:12;3.90;;;2.03;;
18334;SDS011;9293;49.524;10.964;2024-03-23T11:57:38;5.05;;;1.50;;
18334;SDS011;9293;49.524;10.964;2024-03-23T12:00:19;4.15;;;1.58;;
18334;SDS011;9293;49.524;10.964;2024-03-23T12:02:46;5.93;;;1.65;;
18334;SDS011;9293;49.524;10.964;2024-03-23T12:05:16;2.70;;;1.33;;
18334;SDS011;9293;49.524;10.964;2024-03-23T12:07:42;4.60;;;1.60;;
18334;SDS011;9293;49.524;10.964;2024-03-23T12:10:08;4.85;;;1.33;;
18334;SDS011;9293;49.524;10.964;2024-03-23T12:12:34;5.43;;;1.73;;
18334;SDS011;9293;49.524;10.964;2024-03-23T12:15:01;4.13;;;1.42;;
18334;SDS011;9293;49.524;10.964;2024-03-23T12:17:28;4.13;;;1.83;;
18334;SDS011;9293;49.524;10.964;2024-03-23T12:19:54;5.70;;;1.63;;
18334;SDS011;9293;49.524;10.964;2024-03-23T12:22:20;3.53;;;1.40;;
18334;SDS011;9293;49.524;10.964;2024-03-23T12:24:47;8.00;;;1.90;;
18334;SDS011;9293;49.524;10.964;2024-03-23T12:27:13;3.65;;;1.50;;
18334;SDS011;9293;49.524;10.964;2024-03-23T12:29:40;4.20;;;1.33;;
18334;SDS011;9293;49.524;10.964;2024-03-23T12:32:08;5.75;;;1.80;;
18334;SDS011;9293;49.524;10.964;2024-03-23T12:34:34;4.70;;;1.73;;
18334;SDS011;9293;49.524;10.964;2024-03-23T12:37:00;3.67;;;1.50;;
18334;SDS011;9293;49.524;10.964;2024-03-23T12:39:27;4.45;;;2.05;;
18334;SDS011;9293;49.524;10.964;2024-03-23T12:41:53;4.32;;;1.65;;
18334;SDS011;9293;49.524;10.964;2024-03-23T12:44:19;3.90;;;1.70;;
18334;SDS011;9293;49.524;10.964;2024-03-23T12:46:46;4.60;;;2.00;;
18334;SDS011;9293;49.524;10.964;2024-03-23T12:49:13;4.82;;;2.30;;
18334;SDS011;9293;49.524;10.964;2024-03-23T12:51:39;6.32;;;1.98;;
18334;SDS011;9293;49.524;10.964;2024-03-23T12:54:11;6.82;;;2.03;;
18334;SDS011;9293;49.524;10.964;2024-03-23T12:56:37;4.32;;;1.70;;
18334;SDS011;9293;49.524;10.964;2024-03-23T12:59:03;6.05;;;2.30;;
18334;SDS011;9293;49.524;10.964;2024-03-23T13:01:29;4.65;;;1.70;;
18334;SDS011;9293;49.524;10.964;2024-03-23T13:03:55;5.28;;;1.75;;
18334;SDS011;9293;49.524;10.964;2024-03-23T13:06:21;4.25;;;1.90;;
18334;SDS011;9293;49.524;10.964;2024-03-23T13:08:48;4.55;;;1.88;;
18334;SDS011;9293;49.524;10.964;2024-03-23T13:11:15;5.65;;;1.77;;
18334;SDS011;9293;49.524;10.964;2024-03-23T13:13:41;8.60;;;2.38;;
18334;SDS011;9293;49.524;10.964;2024-03-23T13:16:08;5.55;;;1.75;;
18334;SDS011;9293;49.524;10.964;2024-03-23T13:18:34;5.05;;;1.80;;
18334;SDS011;9293;49.524;10.964;2024-03-23T13:21:00;7.28;;;2.05;;
18334;SDS011;9293;49.524;10.964;2024-03-23T13:23:26;2.95;;;1.25;;
18334;SDS011;9293;49.524;10.964;2024-03-23T13:25:53;6.90;;;1.63;;
18334;SDS011;9293;49.524;10.964;2024-03-23T13:28:21;5.10;;;1.67;;
18334;SDS011;9293;49.524;10.964;2024-03-23T13:33:17;5.88;;;2.03;;
18334;SDS011;9293;49.524;10.964;2024-03-23T13:35:53;5.10;;;1.55;;
18334;SDS011;9293;49.524;10.964;2024-03-23T13:38:23;6.18;;;1.80;;
18334;SDS011;9293;49.524;10.964;2024-03-23T13:43:20;5.57;;;1.80;;
18334;SDS011;9293;49.524;10.964;2024-03-23T13:45:47;6.57;;;1.60;;
18334;SDS011;9293;49.524;10.964;2024-03-23T13:48:14;4.53;;;1.92;;
18334;SDS011;9293;49.524;10.964;2024-03-23T13:50:45;5.30;;;1.70;;
18334;SDS011;9293;49.524;10.964;2024-03-23T13:53:13;5.38;;;1.42;;
18334;SDS011;9293;49.524;10.964;2024-03-23T13:55:48;4.72;;;1.42;;
18334;SDS011;9293;49.524;10.964;2024-03-23T13:58:15;5.25;;;1.67;;
18334;SDS011;9293;49.524;10.964;2024-03-23T14:00:41;4.55;;;1.80;;
18334;SDS011;9293;49.524;10.964;2024-03-23T14:03:11;7.22;;;1.90;;
18334;SDS011;9293;49.524;10.964;2024-03-23T14:05:40;4.32;;;1.65;;
18334;SDS011;9293;49.524;10.964;2024-03-23T14:08:10;6.57;;;1.75;;
18334;SDS011;9293;49.524;10.964;2024-03-23T14:10:39;7.97;;;1.45;;
18334;SDS011;9293;49.524;10.964;2024-03-23T14:13:07;5.60;;;1.95;;
18334;SDS011;9293;49.524;10.964;2024-03-23T14:15:37;4.18;;;1.40;;
18334;SDS011;9293;49.524;10.964;2024-03-23T14:18:04;5.30;;;1.50;;
18334;SDS011;9293;49.524;10.964;2024-03-23T14:20:30;5.50;;;1.38;;
18334;SDS011;9293;49.524;10.964;2024-03-23T14:22:57;6.32;;;1.90;;
18334;SDS011;9293;49.524;10.964;2024-03-23T14:25:23;7.57;;;2.00;;
18334;SDS011;9293;49.524;10.964;2024-03-23T14:27:52;6.15;;;1.77;;
18334;SDS011;9293;49.524;10.964;2024-03-23T14:30:18;4.75;;;1.60;;
18334;SDS011;9293;49.524;10.964;2024-03-23T14:32:45;3.55;;;1.35;;
18334;SDS011;9293;49.524;10.964;2024-03-23T14:35:11;6.22;;;1.63;;
18334;SDS011;9293;49.524;10.964;2024-03-23T14:37:37;5.15;;;1.48;;
18334;SDS011;9293;49.524;10.964;2024-03-23T14:40:04;6.20;;;1.65;;
18334;SDS011;9293;49.524;10.964;2024-03-23T14:42:31;5.75;;;1.80;;
18334;SDS011;9293;49.524;10.964;2024-03-23T14:44:58;4.22;;;1.75;;
18334;SDS011;9293;49.524;10.964;2024-03-23T14:47:27;7.13;;;1.88;;
18334;SDS011;9293;49.524;10.964;2024-03-23T14:49:53;5.43;;;1.80;;
18334;SDS011;9293;49.524;10.964;2024-03-23T14:52:22;5.35;;;2.05;;
18334;SDS011;9293;49.524;10.964;2024-03-23T14:54:48;4.80;;;1.98;;
18334;SDS011;9293;49.524;10.964;2024-03-23T14:57:14;7.28;;;1.80;;
18334;SDS011;9293;49.524;10.964;2024-03-23T14:59:40;5.10;;;2.00;;
18334;SDS011;9293;49.524;10.964;2024-03-23T15:02:07;4.90;;;1.67;;
18334;SDS011;9293;49.524;10.964;2024-03-23T15:04:33;5.78;;;1.88;;
18334;SDS011;9293;49.524;10.964;2024-03-23T15:07:00;8.23;;;2.55;;
18334;SDS011;9293;49.524;10.964;2024-03-23T15:09:29;6.95;;;2.75;;
18334;SDS011;9293;49.524;10.964;2024-03-23T15:11:55;7.32;;;2.20;;
18334;SDS011;9293;49.524;10.964;2024-03-23T15:14:23;3.20;;;1.67;;
18334;SDS011;9293;49.524;10.964;2024-03-23T15:16:49;4.15;;;1.65;;
18334;SDS011;9293;49.524;10.964;2024-03-23T15:19:16;3.75;;;1.80;;
18334;SDS011;9293;49.524;10.964;2024-03-23T15:21:43;4.95;;;2.00;;
18334;SDS011;9293;49.524;10.964;2024-03-23T15:24:11;3.60;;;1.88;;
18334;SDS011;9293;49.524;10.964;2024-03-23T15:26:38;5.30;;;2.20;;
18334;SDS011;9293;49.524;10.964;2024-03-23T15:29:05;3.88;;;1.77;;
18334;SDS011;9293;49.524;10.964;2024-03-23T15:31:40;5.32;;;1.90;;
18334;SDS011;9293;49.524;10.964;2024-03-23T15:34:06;2.83;;;1.35;;
18334;SDS011;9293;49.524;10.964;2024-03-23T15:36:36;2.63;;;1.20;;
18334;SDS011;9293;49.524;10.964;2024-03-23T15:39:04;4.75;;;1.85;;
18334;SDS011;9293;49.524;10.964;2024-03-23T15:41:31;3.88;;;1.38;;
18334;SDS011;9293;49.524;10.964;2024-03-23T15:43:58;3.92;;;1.88;;
18334;SDS011;9293;49.524;10.964;2024-03-23T15:46:26;3.60;;;1.48;;
18334;SDS011;9293;49.524;10.964;2024-03-23T15:48:53;3.40;;;2.00;;
18334;SDS011;9293;49.524;10.964;2024-03-23T15:51:20;3.72;;;1.83;;
18334;SDS011;9293;49.524;10.964;2024-03-23T15:53:46;5.03;;;2.45;;
18334;SDS011;9293;49.524;10.964;2024-03-23T15:56:12;3.13;;;1.55;;
18334;SDS011;9293;49.524;10.964;2024-03-23T15:58:38;7.47;;;2.25;;
18334;SDS011;9293;49.524;10.964;2024-03-23T16:01:08;6.60;;;1.92;;
18334;SDS011;9293;49.524;10.964;2024-03-23T16:03:35;5.38;;;1.90;;
18334;SDS011;9293;49.524;10.964;2024-03-23T16:06:03;6.57;;;1.67;;